sensor_id;sensor_type;location;lat;lon;timestamp;temperature;humidity
11925;DHT22;6022;48.768;18.608;2023-02-08T00:01:12;-6.60;99.90
11925;DHT22;6022;48.768;18.608;2023-02-08T00:03:41;-6.70;99.90
11925;DHT22;6022;48.768;18.608;2023-02-08T00:06:09;-6.80;99.90
11925;DHT22;6022;48.768;18.608;2023-02-08T00:08:38;-6.90;99.90
11925;DHT22;6022;48.768;18.608;2023-02-08T00:11:06;-6.90;99.90
11925;DHT22;6022;48.768;18.608;2023-02-08T00:13:37;-6.90;99.90
11925;DHT22;6022;48.768;18.608;2023-02-08T00:16:08;-6.90;99.90
11925;DHT22;6022;48.768;18.608;2023-02-08T00:18:36;-6.80;99.90
11925;DHT22;6022;48.768;18.608;2023-02-08T00:21:11;-6.90;99.90
11925;DHT22;6022;48.768;18.608;2023-02-08T00:23:41;-6.70;99.90
11925;DHT22;6022;48.768;18.608;2023-02-08T00:26:09;-6.70;99.90
11925;DHT22;6022;48.768;18.608;2023-02-08T00:28:37;-6.90;99.90
11925;DHT22;6022;48.768;18.608;2023-02-08T00:31:04;-6.10;99.90
11925;DHT22;6022;48.768;18.608;2023-02-08T00:33:32;-6.80;99.90
11925;DHT22;6022;48.768;18.608;2023-02-08T00:36:01;-6.80;99.90
11925;DHT22;6022;48.768;18.608;2023-02-08T00:38:30;-6.80;99.90
11925;DHT22;6022;48.768;18.608;2023-02-08T00:40:58;-6.90;99.90
11925;DHT22;6022;48.768;18.608;2023-02-08T00:43:26;-6.80;99.90
11925;DHT22;6022;48.768;18.608;2023-02-08T00:45:55;-6.50;99.90
11925;DHT22;6022;48.768;18.608;2023-02-08T00:48:24;-6.90;99.90
11925;DHT22;6022;48.768;18.608;2023-02-08T00:51:08;-6.80;99.90
11925;DHT22;6022;48.768;18.608;2023-02-08T00:53:42;-6.60;99.90
11925;DHT22;6022;48.768;18.608;2023-02-08T00:56:12;-6.70;99.90
11925;DHT22;6022;48.768;18.608;2023-02-08T00:58:42;-6.90;99.90
11925;DHT22;6022;48.768;18.608;2023-02-08T01:01:10;-5.40;99.90
11925;DHT22;6022;48.768;18.608;2023-02-08T01:03:39;-6.80;99.90
11925;DHT22;6022;48.768;18.608;2023-02-08T01:06:10;-6.70;99.90
11925;DHT22;6022;48.768;18.608;2023-02-08T01:08:42;-6.70;99.90
11925;DHT22;6022;48.768;18.608;2023-02-08T01:11:15;-6.70;99.90
11925;DHT22;6022;48.768;18.608;2023-02-08T01:13:48;-6.70;99.90
11925;DHT22;6022;48.768;18.608;2023-02-08T01:16:18;-6.90;99.90
11925;DHT22;6022;48.768;18.608;2023-02-08T01:18:54;-6.60;99.90
11925;DHT22;6022;48.768;18.608;2023-02-08T01:21:25;-7.10;99.90
11925;DHT22;6022;48.768;18.608;2023-02-08T01:23:55;-6.90;99.90
11925;DHT22;6022;48.768;18.608;2023-02-08T01:26:23;-6.90;99.90
11925;DHT22;6022;48.768;18.608;2023-02-08T01:28:52;-7.20;99.90
11925;DHT22;6022;48.768;18.608;2023-02-08T01:31:23;-6.90;99.90
11925;DHT22;6022;48.768;18.608;2023-02-08T01:33:56;-6.90;99.90
11925;DHT22;6022;48.768;18.608;2023-02-08T01:36:25;-7.20;99.90
11925;DHT22;6022;48.768;18.608;2023-02-08T01:38:54;-7.30;99.90
11925;DHT22;6022;48.768;18.608;2023-02-08T01:41:27;-7.10;99.90
11925;DHT22;6022;48.768;18.608;2023-02-08T01:46:46;-6.80;99.90
11925;DHT22;6022;48.768;18.608;2023-02-08T01:49:26;-6.00;99.90
11925;DHT22;6022;48.768;18.608;2023-02-08T01:52:07;-7.20;99.90
11925;DHT22;6022;48.768;18.608;2023-02-08T01:54:49;-7.40;99.90
11925;DHT22;6022;48.768;18.608;2023-02-08T01:57:24;-7.30;99.90
11925;DHT22;6022;48.768;18.608;2023-02-08T02:00:00;-7.60;99.90
11925;DHT22;6022;48.768;18.608;2023-02-08T02:02:35;-7.70;99.90
11925;DHT22;6022;48.768;18.608;2023-02-08T02:05:04;-7.60;99.90
11925;DHT22;6022;48.768;18.608;2023-02-08T02:07:32;-7.60;99.90
11925;DHT22;6022;48.768;18.608;2023-02-08T02:10:14;-7.70;99.90
11925;DHT22;6022;48.768;18.608;2023-02-08T02:12:46;-7.60;99.90
11925;DHT22;6022;48.768;18.608;2023-02-08T02:15:15;-7.40;99.90
11925;DHT22;6022;48.768;18.608;2023-02-08T02:17:42;-7.60;99.90
11925;DHT22;6022;48.768;18.608;2023-02-08T02:29:32;-7.50;99.90
11925;DHT22;6022;48.768;18.608;2023-02-08T02:47:53;-7.40;99.90
11925;DHT22;6022;48.768;18.608;2023-02-08T02:53:59;-7.70;99.90
11925;DHT22;6022;48.768;18.608;2023-02-08T02:56:38;-7.70;99.90
11925;DHT22;6022;48.768;18.608;2023-02-08T02:59:10;-7.70;99.90
11925;DHT22;6022;48.768;18.608;2023-02-08T03:01:39;-8.10;99.90
11925;DHT22;6022;48.768;18.608;2023-02-08T03:04:15;-7.90;99.90
11925;DHT22;6022;48.768;18.608;2023-02-08T03:06:54;-8.00;99.90
11925;DHT22;6022;48.768;18.608;2023-02-08T03:21:35;-7.90;99.90
11925;DHT22;6022;48.768;18.608;2023-02-08T03:24:34;-8.00;99.90
11925;DHT22;6022;48.768;18.608;2023-02-08T03:27:04;-7.90;99.90
11925;DHT22;6022;48.768;18.608;2023-02-08T03:35:35;-8.00;99.90
11925;DHT22;6022;48.768;18.608;2023-02-08T03:38:25;-7.90;99.90
11925;DHT22;6022;48.768;18.608;2023-02-08T03:40:59;-8.10;99.90
11925;DHT22;6022;48.768;18.608;2023-02-08T03:43:37;-7.90;99.90
11925;DHT22;6022;48.768;18.608;2023-02-08T03:46:20;-8.00;99.90
11925;DHT22;6022;48.768;18.608;2023-02-08T03:49:00;-8.00;99.90
11925;DHT22;6022;48.768;18.608;2023-02-08T03:51:33;-8.10;99.90
11925;DHT22;6022;48.768;18.608;2023-02-08T03:54:07;-8.00;99.90
11925;DHT22;6022;48.768;18.608;2023-02-08T03:57:00;-8.00;99.90
11925;DHT22;6022;48.768;18.608;2023-02-08T03:59:38;-8.00;99.90
11925;DHT22;6022;48.768;18.608;2023-02-08T04:02:14;-8.00;99.90
11925;DHT22;6022;48.768;18.608;2023-02-08T04:04:48;-7.90;99.90
11925;DHT22;6022;48.768;18.608;2023-02-08T04:07:18;-8.20;99.90
11925;DHT22;6022;48.768;18.608;2023-02-08T04:09:46;-8.00;99.90
11925;DHT22;6022;48.768;18.608;2023-02-08T04:12:13;-7.80;99.90
11925;DHT22;6022;48.768;18.608;2023-02-08T04:14:40;-8.00;99.90
11925;DHT22;6022;48.768;18.608;2023-02-08T04:17:08;-7.90;99.90
11925;DHT22;6022;48.768;18.608;2023-02-08T04:19:35;-8.00;99.90
11925;DHT22;6022;48.768;18.608;2023-02-08T04:22:03;-8.10;99.90
11925;DHT22;6022;48.768;18.608;2023-02-08T04:26:58;-8.00;99.90
11925;DHT22;6022;48.768;18.608;2023-02-08T04:29:26;-8.40;99.90
11925;DHT22;6022;48.768;18.608;2023-02-08T04:31:54;-8.10;99.90
11925;DHT22;6022;48.768;18.608;2023-02-08T04:34:21;-8.50;99.90
11925;DHT22;6022;48.768;18.608;2023-02-08T04:36:48;-8.10;99.90
11925;DHT22;6022;48.768;18.608;2023-02-08T04:39:15;-8.00;99.90
11925;DHT22;6022;48.768;18.608;2023-02-08T04:41:43;-8.10;99.90
11925;DHT22;6022;48.768;18.608;2023-02-08T04:44:10;-7.00;99.90
11925;DHT22;6022;48.768;18.608;2023-02-08T04:46:37;-8.40;99.90
11925;DHT22;6022;48.768;18.608;2023-02-08T04:49:05;-8.50;99.90
11925;DHT22;6022;48.768;18.608;2023-02-08T04:51:32;-8.30;99.90
11925;DHT22;6022;48.768;18.608;2023-02-08T04:53:59;-8.40;99.90
11925;DHT22;6022;48.768;18.608;2023-02-08T04:56:27;-8.50;99.90
11925;DHT22;6022;48.768;18.608;2023-02-08T04:58:54;-8.30;99.90
11925;DHT22;6022;48.768;18.608;2023-02-08T05:01:22;-8.30;99.90
11925;DHT22;6022;48.768;18.608;2023-02-08T05:03:49;-8.40;99.90
11925;DHT22;6022;48.768;18.608;2023-02-08T05:06:16;-8.20;99.90
11925;DHT22;6022;48.768;18.608;2023-02-08T05:08:44;-8.20;99.90
11925;DHT22;6022;48.768;18.608;2023-02-08T05:11:11;-8.10;99.90
11925;DHT22;6022;48.768;18.608;2023-02-08T05:13:38;-8.10;99.90
11925;DHT22;6022;48.768;18.608;2023-02-08T05:16:06;-8.00;99.90
11925;DHT22;6022;48.768;18.608;2023-02-08T05:18:34;-7.90;99.90
11925;DHT22;6022;48.768;18.608;2023-02-08T05:21:02;-7.90;99.90
11925;DHT22;6022;48.768;18.608;2023-02-08T05:23:29;-8.10;99.90
11925;DHT22;6022;48.768;18.608;2023-02-08T05:25:58;-7.90;99.90
11925;DHT22;6022;48.768;18.608;2023-02-08T05:28:25;-7.90;99.90
11925;DHT22;6022;48.768;18.608;2023-02-08T05:30:53;-8.40;99.90
11925;DHT22;6022;48.768;18.608;2023-02-08T05:33:20;-8.30;99.90
11925;DHT22;6022;48.768;18.608;2023-02-08T05:35:47;-8.50;99.90
11925;DHT22;6022;48.768;18.608;2023-02-08T05:38:14;-8.30;99.90
11925;DHT22;6022;48.768;18.608;2023-02-08T05:40:42;-8.30;99.90
11925;DHT22;6022;48.768;18.608;2023-02-08T05:43:09;-8.30;99.90
11925;DHT22;6022;48.768;18.608;2023-02-08T05:45:36;-8.20;99.90
11925;DHT22;6022;48.768;18.608;2023-02-08T05:48:04;-8.20;99.90
11925;DHT22;6022;48.768;18.608;2023-02-08T05:50:31;-8.40;99.90
11925;DHT22;6022;48.768;18.608;2023-02-08T05:52:59;-8.50;99.90
11925;DHT22;6022;48.768;18.608;2023-02-08T05:55:26;-8.30;99.90
11925;DHT22;6022;48.768;18.608;2023-02-08T05:57:54;-8.20;99.90
11925;DHT22;6022;48.768;18.608;2023-02-08T06:00:21;-8.20;99.90
11925;DHT22;6022;48.768;18.608;2023-02-08T06:02:49;-8.30;99.90
11925;DHT22;6022;48.768;18.608;2023-02-08T06:05:16;-8.50;99.90
11925;DHT22;6022;48.768;18.608;2023-02-08T06:07:44;-8.30;99.90
11925;DHT22;6022;48.768;18.608;2023-02-08T06:10:11;-8.50;99.90
11925;DHT22;6022;48.768;18.608;2023-02-08T06:12:38;-8.80;99.90
11925;DHT22;6022;48.768;18.608;2023-02-08T06:15:06;-9.30;99.90
11925;DHT22;6022;48.768;18.608;2023-02-08T06:17:35;-9.10;99.90
11925;DHT22;6022;48.768;18.608;2023-02-08T06:20:03;-9.40;99.90
11925;DHT22;6022;48.768;18.608;2023-02-08T06:22:33;-9.10;99.90
11925;DHT22;6022;48.768;18.608;2023-02-08T06:25:01;-9.30;99.90
11925;DHT22;6022;48.768;18.608;2023-02-08T06:27:28;-9.30;99.90
11925;DHT22;6022;48.768;18.608;2023-02-08T06:29:55;-9.20;99.90
11925;DHT22;6022;48.768;18.608;2023-02-08T06:32:23;-6.40;99.90
11925;DHT22;6022;48.768;18.608;2023-02-08T06:34:53;-8.80;99.90
11925;DHT22;6022;48.768;18.608;2023-02-08T06:37:21;-8.70;99.90
11925;DHT22;6022;48.768;18.608;2023-02-08T06:39:49;-8.80;99.90
11925;DHT22;6022;48.768;18.608;2023-02-08T06:42:17;-8.80;99.90
11925;DHT22;6022;48.768;18.608;2023-02-08T06:44:44;-7.70;99.90
11925;DHT22;6022;48.768;18.608;2023-02-08T06:47:22;-8.00;99.90
11925;DHT22;6022;48.768;18.608;2023-02-08T06:49:51;-7.80;99.90
11925;DHT22;6022;48.768;18.608;2023-02-08T06:52:19;-7.40;99.90
11925;DHT22;6022;48.768;18.608;2023-02-08T06:54:47;-7.10;99.90
11925;DHT22;6022;48.768;18.608;2023-02-08T06:57:17;-7.00;99.90
11925;DHT22;6022;48.768;18.608;2023-02-08T06:59:45;-6.80;99.90
11925;DHT22;6022;48.768;18.608;2023-02-08T07:02:15;-6.70;99.90
11925;DHT22;6022;48.768;18.608;2023-02-08T07:04:44;-6.70;99.90
11925;DHT22;6022;48.768;18.608;2023-02-08T07:07:14;-6.70;99.90
11925;DHT22;6022;48.768;18.608;2023-02-08T07:09:43;-6.40;99.90
11925;DHT22;6022;48.768;18.608;2023-02-08T07:12:10;-6.10;99.90
11925;DHT22;6022;48.768;18.608;2023-02-08T07:14:40;-6.20;99.90
11925;DHT22;6022;48.768;18.608;2023-02-08T07:17:10;-6.30;99.90
11925;DHT22;6022;48.768;18.608;2023-02-08T07:19:39;-6.10;99.90
11925;DHT22;6022;48.768;18.608;2023-02-08T07:22:10;-6.00;99.90
11925;DHT22;6022;48.768;18.608;2023-02-08T07:24:40;-6.40;99.90
11925;DHT22;6022;48.768;18.608;2023-02-08T07:30:02;-6.20;99.90
11925;DHT22;6022;48.768;18.608;2023-02-08T07:32:38;-5.90;99.90
11925;DHT22;6022;48.768;18.608;2023-02-08T07:35:24;-5.70;99.90
11925;DHT22;6022;48.768;18.608;2023-02-08T07:37:54;-6.00;99.90
11925;DHT22;6022;48.768;18.608;2023-02-08T07:40:22;-5.90;99.90
11925;DHT22;6022;48.768;18.608;2023-02-08T07:42:50;-6.20;99.90
11925;DHT22;6022;48.768;18.608;2023-02-08T07:45:17;-6.00;99.90
11925;DHT22;6022;48.768;18.608;2023-02-08T07:47:45;-6.00;99.90
11925;DHT22;6022;48.768;18.608;2023-02-08T07:50:16;-6.10;99.90
11925;DHT22;6022;48.768;18.608;2023-02-08T07:52:43;-5.80;99.90
11925;DHT22;6022;48.768;18.608;2023-02-08T07:55:13;-5.70;99.90
11925;DHT22;6022;48.768;18.608;2023-02-08T07:57:50;-5.70;99.90
11925;DHT22;6022;48.768;18.608;2023-02-08T08:00:38;-5.00;99.90
11925;DHT22;6022;48.768;18.608;2023-02-08T08:03:09;-4.40;99.90
11925;DHT22;6022;48.768;18.608;2023-02-08T08:05:40;-5.10;99.90
11925;DHT22;6022;48.768;18.608;2023-02-08T08:08:09;-4.90;99.90
11925;DHT22;6022;48.768;18.608;2023-02-08T08:10:37;-4.50;99.90
11925;DHT22;6022;48.768;18.608;2023-02-08T08:13:06;-4.20;99.90
11925;DHT22;6022;48.768;18.608;2023-02-08T08:15:33;-4.20;99.90
11925;DHT22;6022;48.768;18.608;2023-02-08T08:18:04;-3.70;99.90
11925;DHT22;6022;48.768;18.608;2023-02-08T08:20:32;-3.20;99.90
11925;DHT22;6022;48.768;18.608;2023-02-08T08:23:00;-2.50;99.90
11925;DHT22;6022;48.768;18.608;2023-02-08T08:25:28;-2.20;99.90
11925;DHT22;6022;48.768;18.608;2023-02-08T08:30:23;-1.30;99.90
11925;DHT22;6022;48.768;18.608;2023-02-08T08:32:51;-1.10;99.90
11925;DHT22;6022;48.768;18.608;2023-02-08T08:35:18;-1.10;99.90
11925;DHT22;6022;48.768;18.608;2023-02-08T08:37:46;-1.10;99.90
11925;DHT22;6022;48.768;18.608;2023-02-08T08:40:16;-0.50;99.90
11925;DHT22;6022;48.768;18.608;2023-02-08T08:42:44;-0.90;99.90
11925;DHT22;6022;48.768;18.608;2023-02-08T08:45:11;-0.50;99.90
11925;DHT22;6022;48.768;18.608;2023-02-08T08:47:39;0.30;99.90
11925;DHT22;6022;48.768;18.608;2023-02-08T08:50:07;0.20;99.90
11925;DHT22;6022;48.768;18.608;2023-02-08T08:52:35;0.40;99.90
11925;DHT22;6022;48.768;18.608;2023-02-08T08:55:03;0.60;99.90
11925;DHT22;6022;48.768;18.608;2023-02-08T08:57:30;1.20;99.90
11925;DHT22;6022;48.768;18.608;2023-02-08T09:00:04;1.20;99.90
11925;DHT22;6022;48.768;18.608;2023-02-08T09:02:39;1.80;99.90
11925;DHT22;6022;48.768;18.608;2023-02-08T09:05:06;1.90;99.90
11925;DHT22;6022;48.768;18.608;2023-02-08T09:07:34;1.40;99.90
11925;DHT22;6022;48.768;18.608;2023-02-08T09:12:29;1.30;99.90
11925;DHT22;6022;48.768;18.608;2023-02-08T09:14:57;1.20;99.90
11925;DHT22;6022;48.768;18.608;2023-02-08T09:17:24;1.20;99.90
11925;DHT22;6022;48.768;18.608;2023-02-08T09:19:52;1.50;99.90
11925;DHT22;6022;48.768;18.608;2023-02-08T09:22:19;1.70;99.90
11925;DHT22;6022;48.768;18.608;2023-02-08T09:24:47;2.00;99.90
11925;DHT22;6022;48.768;18.608;2023-02-08T09:27:14;1.60;99.90
11925;DHT22;6022;48.768;18.608;2023-02-08T09:29:41;2.20;99.90
11925;DHT22;6022;48.768;18.608;2023-02-08T09:32:09;2.40;99.90
11925;DHT22;6022;48.768;18.608;2023-02-08T09:34:36;2.30;99.90
11925;DHT22;6022;48.768;18.608;2023-02-08T09:37:04;2.60;99.90
11925;DHT22;6022;48.768;18.608;2023-02-08T09:39:32;2.40;99.90
11925;DHT22;6022;48.768;18.608;2023-02-08T09:47:36;2.70;99.90
11925;DHT22;6022;48.768;18.608;2023-02-08T09:53:16;2.80;99.90
11925;DHT22;6022;48.768;18.608;2023-02-08T09:56:04;2.80;99.90
11925;DHT22;6022;48.768;18.608;2023-02-08T09:58:36;3.40;99.90
11925;DHT22;6022;48.768;18.608;2023-02-08T10:01:17;3.90;99.90
11925;DHT22;6022;48.768;18.608;2023-02-08T10:03:50;4.30;99.90
11925;DHT22;6022;48.768;18.608;2023-02-08T10:06:25;4.50;99.90
11925;DHT22;6022;48.768;18.608;2023-02-08T10:08:52;4.60;99.90
11925;DHT22;6022;48.768;18.608;2023-02-08T10:17:01;5.30;99.90
11925;DHT22;6022;48.768;18.608;2023-02-08T10:34:57;4.70;99.90
11925;DHT22;6022;48.768;18.608;2023-02-08T10:37:37;5.50;99.90
11925;DHT22;6022;48.768;18.608;2023-02-08T10:43:25;5.60;99.90
11925;DHT22;6022;48.768;18.608;2023-02-08T10:51:53;5.50;98.70
11925;DHT22;6022;48.768;18.608;2023-02-08T10:54:21;5.40;98.70
11925;DHT22;6022;48.768;18.608;2023-02-08T10:56:52;5.10;98.90
11925;DHT22;6022;48.768;18.608;2023-02-08T10:59:27;5.10;98.80
11925;DHT22;6022;48.768;18.608;2023-02-08T11:02:20;5.10;98.50
11925;DHT22;6022;48.768;18.608;2023-02-08T11:05:05;5.10;99.10
11925;DHT22;6022;48.768;18.608;2023-02-08T11:07:33;5.70;98.20
11925;DHT22;6022;48.768;18.608;2023-02-08T11:10:13;5.50;97.20
11925;DHT22;6022;48.768;18.608;2023-02-08T11:12:56;5.50;96.70
11925;DHT22;6022;48.768;18.608;2023-02-08T11:15:39;5.50;96.10
11925;DHT22;6022;48.768;18.608;2023-02-08T11:18:29;5.60;97.10
11925;DHT22;6022;48.768;18.608;2023-02-08T11:21:27;5.50;96.60
11925;DHT22;6022;48.768;18.608;2023-02-08T11:26:42;5.50;96.40
11925;DHT22;6022;48.768;18.608;2023-02-08T11:29:19;5.90;95.70
11925;DHT22;6022;48.768;18.608;2023-02-08T11:31:57;5.90;96.30
11925;DHT22;6022;48.768;18.608;2023-02-08T11:34:34;6.10;95.50
11925;DHT22;6022;48.768;18.608;2023-02-08T11:37:18;6.30;95.00
11925;DHT22;6022;48.768;18.608;2023-02-08T11:39:58;5.80;95.40
11925;DHT22;6022;48.768;18.608;2023-02-08T11:42:33;5.50;95.40
11925;DHT22;6022;48.768;18.608;2023-02-08T11:45:06;5.90;95.20
11925;DHT22;6022;48.768;18.608;2023-02-08T11:47:36;5.90;95.20
11925;DHT22;6022;48.768;18.608;2023-02-08T11:50:06;6.20;94.30
11925;DHT22;6022;48.768;18.608;2023-02-08T11:53:00;6.20;93.60
11925;DHT22;6022;48.768;18.608;2023-02-08T11:55:32;5.80;94.80
11925;DHT22;6022;48.768;18.608;2023-02-08T12:00:39;6.00;96.30
11925;DHT22;6022;48.768;18.608;2023-02-08T12:03:13;6.70;93.50
11925;DHT22;6022;48.768;18.608;2023-02-08T12:09:20;7.20;92.50
11925;DHT22;6022;48.768;18.608;2023-02-08T12:21:25;7.00;89.60
11925;DHT22;6022;48.768;18.608;2023-02-08T12:27:53;6.80;89.20
11925;DHT22;6022;48.768;18.608;2023-02-08T12:30:10;6.80;90.00
11925;DHT22;6022;48.768;18.608;2023-02-08T12:47:39;6.10;89.00
11925;DHT22;6022;48.768;18.608;2023-02-08T12:50:48;6.00;89.70
11925;DHT22;6022;48.768;18.608;2023-02-08T12:53:39;6.00;90.00
11925;DHT22;6022;48.768;18.608;2023-02-08T12:56:16;6.20;88.60
11925;DHT22;6022;48.768;18.608;2023-02-08T12:58:50;6.50;87.70
11925;DHT22;6022;48.768;18.608;2023-02-08T13:01:41;6.40;86.80
11925;DHT22;6022;48.768;18.608;2023-02-08T13:04:15;6.60;85.20
11925;DHT22;6022;48.768;18.608;2023-02-08T13:06:55;6.40;87.00
11925;DHT22;6022;48.768;18.608;2023-02-08T13:09:47;6.10;88.00
11925;DHT22;6022;48.768;18.608;2023-02-08T13:12:29;6.20;88.30
11925;DHT22;6022;48.768;18.608;2023-02-08T13:15:17;6.00;88.70
11925;DHT22;6022;48.768;18.608;2023-02-08T13:17:59;6.50;87.70
11925;DHT22;6022;48.768;18.608;2023-02-08T13:23:20;7.00;85.50
11925;DHT22;6022;48.768;18.608;2023-02-08T13:25:57;7.00;83.70
11925;DHT22;6022;48.768;18.608;2023-02-08T13:28:32;6.70;83.90
11925;DHT22;6022;48.768;18.608;2023-02-08T13:31:11;6.10;85.60
11925;DHT22;6022;48.768;18.608;2023-02-08T13:34:06;6.00;86.00
11925;DHT22;6022;48.768;18.608;2023-02-08T13:36:49;6.50;85.10
11925;DHT22;6022;48.768;18.608;2023-02-08T13:39:34;6.50;84.80
11925;DHT22;6022;48.768;18.608;2023-02-08T13:42:20;6.60;85.20
11925;DHT22;6022;48.768;18.608;2023-02-08T13:44:54;6.60;83.30
11925;DHT22;6022;48.768;18.608;2023-02-08T13:47:27;6.40;84.20
11925;DHT22;6022;48.768;18.608;2023-02-08T13:50:00;6.40;85.30
11925;DHT22;6022;48.768;18.608;2023-02-08T13:55:43;6.60;84.90
11925;DHT22;6022;48.768;18.608;2023-02-08T13:58:56;6.50;84.70
11925;DHT22;6022;48.768;18.608;2023-02-08T14:01:34;6.50;85.10
11925;DHT22;6022;48.768;18.608;2023-02-08T14:06:58;6.30;85.30
11925;DHT22;6022;48.768;18.608;2023-02-08T14:09:36;6.20;85.60
11925;DHT22;6022;48.768;18.608;2023-02-08T14:12:27;6.20;86.30
11925;DHT22;6022;48.768;18.608;2023-02-08T14:17:43;5.90;87.50
11925;DHT22;6022;48.768;18.608;2023-02-08T14:20:37;6.00;87.10
11925;DHT22;6022;48.768;18.608;2023-02-08T14:23:24;5.70;88.60
11925;DHT22;6022;48.768;18.608;2023-02-08T14:25:54;5.90;89.10
11925;DHT22;6022;48.768;18.608;2023-02-08T14:28:31;5.60;88.50
11925;DHT22;6022;48.768;18.608;2023-02-08T14:31:05;5.40;88.50
11925;DHT22;6022;48.768;18.608;2023-02-08T14:33:38;5.60;88.50
11925;DHT22;6022;48.768;18.608;2023-02-08T14:36:31;5.10;88.20
11925;DHT22;6022;48.768;18.608;2023-02-08T14:39:23;5.10;90.00
11925;DHT22;6022;48.768;18.608;2023-02-08T14:42:05;4.90;90.80
11925;DHT22;6022;48.768;18.608;2023-02-08T14:44:56;4.70;90.80
11925;DHT22;6022;48.768;18.608;2023-02-08T14:47:49;4.70;91.40
11925;DHT22;6022;48.768;18.608;2023-02-08T14:50:27;4.80;92.20
11925;DHT22;6022;48.768;18.608;2023-02-08T14:53:28;4.60;92.00
11925;DHT22;6022;48.768;18.608;2023-02-08T14:59:15;4.60;92.50
11925;DHT22;6022;48.768;18.608;2023-02-08T15:01:53;4.60;92.70
11925;DHT22;6022;48.768;18.608;2023-02-08T15:04:25;4.50;93.40
11925;DHT22;6022;48.768;18.608;2023-02-08T15:09:36;4.40;95.10
11925;DHT22;6022;48.768;18.608;2023-02-08T15:12:28;1.20;93.50
11925;DHT22;6022;48.768;18.608;2023-02-08T15:15:01;4.10;93.30
11925;DHT22;6022;48.768;18.608;2023-02-08T15:17:44;3.90;93.50
11925;DHT22;6022;48.768;18.608;2023-02-08T15:20:23;4.10;94.20
11925;DHT22;6022;48.768;18.608;2023-02-08T15:23:18;3.80;95.00
11925;DHT22;6022;48.768;18.608;2023-02-08T15:26:05;3.80;96.70
11925;DHT22;6022;48.768;18.608;2023-02-08T15:28:48;3.70;96.60
11925;DHT22;6022;48.768;18.608;2023-02-08T15:31:19;3.50;98.00
11925;DHT22;6022;48.768;18.608;2023-02-08T15:33:51;3.30;98.50
11925;DHT22;6022;48.768;18.608;2023-02-08T15:36:27;3.70;98.00
11925;DHT22;6022;48.768;18.608;2023-02-08T15:38:59;3.50;98.30
11925;DHT22;6022;48.768;18.608;2023-02-08T15:41:32;3.40;97.10
11925;DHT22;6022;48.768;18.608;2023-02-08T15:44:13;3.20;97.70
11925;DHT22;6022;48.768;18.608;2023-02-08T15:46:42;2.90;98.10
11925;DHT22;6022;48.768;18.608;2023-02-08T15:49:16;2.90;98.60
11925;DHT22;6022;48.768;18.608;2023-02-08T15:51:54;3.00;98.80
11925;DHT22;6022;48.768;18.608;2023-02-08T15:54:26;2.70;99.90
11925;DHT22;6022;48.768;18.608;2023-02-08T15:57:04;2.70;99.90
11925;DHT22;6022;48.768;18.608;2023-02-08T15:59:44;2.40;99.90
11925;DHT22;6022;48.768;18.608;2023-02-08T16:02:32;2.50;99.90
11925;DHT22;6022;48.768;18.608;2023-02-08T16:05:28;2.50;99.90
11925;DHT22;6022;48.768;18.608;2023-02-08T16:08:01;2.50;99.90
11925;DHT22;6022;48.768;18.608;2023-02-08T16:10:43;1.80;99.90
11925;DHT22;6022;48.768;18.608;2023-02-08T16:13:26;2.00;99.90
11925;DHT22;6022;48.768;18.608;2023-02-08T16:16:24;2.00;99.90
11925;DHT22;6022;48.768;18.608;2023-02-08T16:19:33;2.00;99.90
11925;DHT22;6022;48.768;18.608;2023-02-08T16:24:47;1.70;99.90
11925;DHT22;6022;48.768;18.608;2023-02-08T16:27:26;1.50;99.90
11925;DHT22;6022;48.768;18.608;2023-02-08T16:29:56;1.60;99.90
11925;DHT22;6022;48.768;18.608;2023-02-08T16:32:37;1.60;99.90
11925;DHT22;6022;48.768;18.608;2023-02-08T16:35:23;1.30;99.90
11925;DHT22;6022;48.768;18.608;2023-02-08T16:38:00;1.20;99.90
11925;DHT22;6022;48.768;18.608;2023-02-08T16:40:45;1.00;99.90
11925;DHT22;6022;48.768;18.608;2023-02-08T16:43:28;1.00;99.90
11925;DHT22;6022;48.768;18.608;2023-02-08T16:48:55;0.30;99.90
11925;DHT22;6022;48.768;18.608;2023-02-08T16:51:33;0.30;99.90
11925;DHT22;6022;48.768;18.608;2023-02-08T16:54:03;0.70;99.90
11925;DHT22;6022;48.768;18.608;2023-02-08T16:56:37;0.70;99.90
11925;DHT22;6022;48.768;18.608;2023-02-08T16:59:11;0.60;99.90
11925;DHT22;6022;48.768;18.608;2023-02-08T17:01:39;0.40;99.90
11925;DHT22;6022;48.768;18.608;2023-02-08T17:04:14;0.30;99.90
11925;DHT22;6022;48.768;18.608;2023-02-08T17:06:44;0.30;99.90
11925;DHT22;6022;48.768;18.608;2023-02-08T17:09:12;0.60;99.90
11925;DHT22;6022;48.768;18.608;2023-02-08T17:11:40;0.60;99.90
11925;DHT22;6022;48.768;18.608;2023-02-08T17:14:17;0.70;99.90
11925;DHT22;6022;48.768;18.608;2023-02-08T17:16:51;0.30;99.90
11925;DHT22;6022;48.768;18.608;2023-02-08T17:19:22;0.30;99.90
11925;DHT22;6022;48.768;18.608;2023-02-08T17:21:51;0.20;99.90
11925;DHT22;6022;48.768;18.608;2023-02-08T17:24:19;0.10;99.90
11925;DHT22;6022;48.768;18.608;2023-02-08T17:26:52;-0.60;99.90
11925;DHT22;6022;48.768;18.608;2023-02-08T17:29:20;-0.30;99.90
11925;DHT22;6022;48.768;18.608;2023-02-08T17:31:47;-0.40;99.90
11925;DHT22;6022;48.768;18.608;2023-02-08T17:34:15;-0.60;99.90
11925;DHT22;6022;48.768;18.608;2023-02-08T17:36:43;-0.90;99.90
11925;DHT22;6022;48.768;18.608;2023-02-08T17:39:10;-0.80;99.90
11925;DHT22;6022;48.768;18.608;2023-02-08T17:41:38;-0.70;99.90
11925;DHT22;6022;48.768;18.608;2023-02-08T17:44:06;-1.00;99.90
11925;DHT22;6022;48.768;18.608;2023-02-08T17:46:34;-0.30;99.90
11925;DHT22;6022;48.768;18.608;2023-02-08T17:49:01;-1.00;99.90
11925;DHT22;6022;48.768;18.608;2023-02-08T17:51:30;-0.70;99.90
11925;DHT22;6022;48.768;18.608;2023-02-08T17:54:02;-1.00;99.90
11925;DHT22;6022;48.768;18.608;2023-02-08T17:56:31;-1.00;99.90
11925;DHT22;6022;48.768;18.608;2023-02-08T17:59:01;-1.30;99.90
11925;DHT22;6022;48.768;18.608;2023-02-08T18:01:39;-0.10;99.90
11925;DHT22;6022;48.768;18.608;2023-02-08T18:04:06;-1.80;99.90
11925;DHT22;6022;48.768;18.608;2023-02-08T18:06:40;-1.50;99.90
11925;DHT22;6022;48.768;18.608;2023-02-08T18:09:07;-1.40;99.90
11925;DHT22;6022;48.768;18.608;2023-02-08T18:11:34;-1.60;99.90
11925;DHT22;6022;48.768;18.608;2023-02-08T18:14:02;-1.30;99.90
11925;DHT22;6022;48.768;18.608;2023-02-08T18:17:08;-1.60;99.90
11925;DHT22;6022;48.768;18.608;2023-02-08T18:19:35;-1.60;99.90
11925;DHT22;6022;48.768;18.608;2023-02-08T18:22:04;-1.60;99.90
11925;DHT22;6022;48.768;18.608;2023-02-08T18:24:32;-1.80;99.90
11925;DHT22;6022;48.768;18.608;2023-02-08T18:27:00;-1.60;99.90
11925;DHT22;6022;48.768;18.608;2023-02-08T18:29:33;-1.60;99.90
11925;DHT22;6022;48.768;18.608;2023-02-08T18:32:00;-1.70;99.90
11925;DHT22;6022;48.768;18.608;2023-02-08T18:34:29;-1.80;99.90
11925;DHT22;6022;48.768;18.608;2023-02-08T18:36:57;-1.80;99.90
11925;DHT22;6022;48.768;18.608;2023-02-08T18:39:24;-1.90;99.90
11925;DHT22;6022;48.768;18.608;2023-02-08T18:41:52;-1.90;99.90
11925;DHT22;6022;48.768;18.608;2023-02-08T18:44:20;-1.90;99.90
11925;DHT22;6022;48.768;18.608;2023-02-08T18:46:47;-1.90;99.90
11925;DHT22;6022;48.768;18.608;2023-02-08T18:49:15;-2.00;99.90
11925;DHT22;6022;48.768;18.608;2023-02-08T18:51:44;-1.80;99.90
11925;DHT22;6022;48.768;18.608;2023-02-08T18:54:16;-2.00;99.90